createdAt,value
2023-09-09T00:00:51.090Z,116311.31
2023-09-09T00:03:20.843Z,111447.69
2023-09-09T00:05:48.000Z,120483.28
2023-09-09T00:08:16.787Z,108351.44
2023-09-09T00:10:44.660Z,111459.00
2023-09-09T00:13:12.709Z,107296.38
2023-09-09T00:15:40.728Z,99356.19
2023-09-09T00:18:08.654Z,104537.25
2023-09-09T00:20:40.446Z,114223.94
2023-09-09T00:23:09.631Z,112476.91
2023-09-09T00:25:38.495Z,109355.22
2023-09-09T00:28:08.411Z,114184.25
2023-09-09T00:30:36.434Z,112797.75
2023-09-09T00:33:05.330Z,106912.16
2023-09-09T00:35:34.093Z,107252.69
2023-09-09T00:38:03.591Z,114166.84
2023-09-09T00:40:31.587Z,105508.84
2023-09-09T00:42:59.721Z,94469.59
2023-09-09T00:45:28.522Z,100002.88
2023-09-09T00:47:56.947Z,101045.78
2023-09-09T00:50:25.667Z,102771.63
2023-09-09T00:52:54.034Z,104486.75
2023-09-09T00:55:25.117Z,104133.09
2023-09-09T00:57:53.959Z,105157.72
2023-09-09T01:00:21.943Z,96882.56
2023-09-09T01:02:50.045Z,85877.22
2023-09-09T01:05:18.217Z,83125.63
2023-09-09T01:07:47.607Z,90691.44
2023-09-09T01:10:16.576Z,91036.59
2023-09-09T01:12:46.239Z,102756.81
2023-09-09T01:15:14.918Z,95160.69
2023-09-09T01:17:43.333Z,98605.22
2023-09-09T01:20:16.029Z,95840.56
2023-09-09T01:22:47.495Z,96186.22
2023-09-09T01:25:15.578Z,103419.88
2023-09-09T01:27:43.713Z,99609.41
2023-09-09T01:30:13.166Z,88238.88
2023-09-09T01:32:41.420Z,84469.47
2023-09-09T01:35:09.686Z,88242.63
2023-09-09T01:37:37.565Z,89266.38
2023-09-09T01:40:11.494Z,79653.00
2023-09-09T01:42:39.951Z,83430.19
2023-09-09T01:45:09.017Z,82399.13
2023-09-09T01:47:37.989Z,88570.78
2023-09-09T01:50:08.090Z,91667.03
2023-09-09T01:52:35.972Z,92343.88
2023-09-09T01:55:04.124Z,90967.00
2023-09-09T01:57:33.498Z,91308.06
2023-09-09T02:00:01.364Z,84435.69
2023-09-09T02:02:29.312Z,80666.03
2023-09-09T02:04:57.397Z,86498.81
2023-09-09T02:07:25.367Z,90276.44
2023-09-09T02:09:53.208Z,90272.59
2023-09-09T02:12:21.222Z,92674.00
2023-09-09T02:14:50.684Z,90256.47
2023-09-09T02:17:18.673Z,89567.00
2023-09-09T02:19:54.838Z,80646.09
2023-09-09T02:22:22.785Z,85795.38
2023-09-09T02:24:55.809Z,81685.94
2023-09-09T02:27:23.813Z,86490.00
2023-09-09T02:29:53.121Z,90599.72
2023-09-09T02:32:21.297Z,84756.09
2023-09-09T02:34:49.373Z,92652.69
2023-09-09T02:37:18.832Z,92633.00
2023-09-09T02:39:46.949Z,91249.00
2023-09-09T02:42:17.254Z,74114.09
2023-09-09T02:44:45.813Z,85755.91
2023-09-09T02:47:15.153Z,80612.34
2023-09-09T02:49:45.086Z,76500.84
2023-09-09T02:52:14.819Z,82328.19
2023-09-09T02:54:43.250Z,84042.00
2023-09-09T02:57:11.165Z,78224.66
2023-09-09T02:59:39.478Z,86785.63
2023-09-09T03:02:07.411Z,73417.56
2023-09-09T03:04:37.025Z,77532.59
2023-09-09T03:07:05.357Z,73768.00
2023-09-09T03:09:36.815Z,77197.22
2023-09-09T03:12:06.451Z,91246.69
2023-09-09T03:14:34.904Z,83344.19
2023-09-09T03:17:03.046Z,74098.88
2023-09-09T03:19:30.978Z,75466.94
2023-09-09T03:22:00.414Z,76145.34
2023-09-09T03:24:28.506Z,81950.81
2023-09-09T03:26:56.884Z,78861.03
2023-09-09T03:29:24.988Z,75104.03
2023-09-09T03:31:52.987Z,79893.13
2023-09-09T03:34:20.948Z,79889.72
2023-09-09T03:36:48.949Z,74407.47
2023-09-09T03:39:19.234Z,72353.28
2023-09-09T03:41:47.168Z,73040.34
2023-09-09T03:44:15.164Z,78859.03
2023-09-09T03:46:43.065Z,77484.94
2023-09-09T03:49:11.239Z,74074.16
2023-09-09T03:51:39.381Z,68948.56
2023-09-09T03:54:07.651Z,75100.81
2023-09-09T03:56:36.848Z,81594.00
2023-09-09T03:59:04.849Z,80555.97
2023-09-09T04:01:33.633Z,73025.97
2023-09-09T04:04:01.750Z,66880.81
2023-09-09T04:06:29.938Z,77820.09
2023-09-09T04:08:58.640Z,74736.19
2023-09-09T04:11:26.588Z,68247.72
2023-09-09T04:13:56.133Z,70295.00
2023-09-09T04:16:24.365Z,68593.97
2023-09-09T04:18:52.243Z,69964.09
2023-09-09T04:21:20.336Z,78149.84
2023-09-09T04:23:48.390Z,73693.56
2023-09-09T04:26:16.466Z,75052.66
2023-09-09T04:28:44.326Z,71298.28
2023-09-09T04:31:13.869Z,71635.69
2023-09-09T04:33:41.923Z,72661.00
2023-09-09T04:36:10.112Z,76762.03
2023-09-09T04:38:41.320Z,72995.97
2023-09-09T04:41:10.617Z,70611.31
2023-09-09T04:43:38.727Z,67882.94
2023-09-09T04:46:06.995Z,65160.94
2023-09-09T04:48:36.461Z,71984.22
2023-09-09T04:51:04.384Z,74023.50
2023-09-09T04:53:32.334Z,67191.63
2023-09-09T04:56:01.888Z,71288.50
2023-09-09T04:58:31.616Z,70594.31
2023-09-09T05:00:59.897Z,67525.34
2023-09-09T05:03:27.818Z,64805.38
2023-09-09T05:05:57.187Z,61063.56
2023-09-09T05:08:25.157Z,61406.91
2023-09-09T05:10:52.996Z,66860.16
2023-09-09T05:13:21.224Z,71285.44
2023-09-09T05:15:49.881Z,62078.81
2023-09-09T05:18:17.917Z,67198.56
2023-09-09T05:20:46.961Z,61410.59
2023-09-09T05:23:19.458Z,65503.22
2023-09-09T05:25:47.367Z,66866.44
2023-09-09T05:28:15.325Z,65503.22
2023-09-09T05:30:43.303Z,62784.16
2023-09-09T05:33:11.302Z,64162.00
2023-09-09T05:35:39.272Z,65532.50
2023-09-09T05:38:07.139Z,64852.16
2023-09-09T05:40:36.355Z,65196.81
2023-09-09T05:43:04.503Z,63835.13
2023-09-09T05:45:32.595Z,63505.97
2023-09-09T05:48:00.676Z,59764.44
2023-09-09T05:50:48.709Z,62163.84
2023-09-09T05:53:29.666Z,64547.53
2023-09-09T05:56:30.672Z,66268.09
2023-09-09T05:59:39.008Z,61521.75
2023-09-09T06:02:18.487Z,60894.16
2023-09-09T06:04:48.995Z,66445.75
2023-09-09T06:07:17.549Z,58308.78
2023-09-09T06:09:46.048Z,85133.47
2023-09-09T06:12:15.902Z,116670.00
2023-09-09T06:14:44.464Z,139130.09
2023-09-09T06:17:12.871Z,142050.75
2023-09-09T06:19:45.091Z,130264.88
2023-09-09T06:22:16.459Z,155660.13
2023-09-09T06:24:46.368Z,155539.50
2023-09-09T06:27:18.249Z,155648.31
2023-09-09T06:29:46.511Z,155885.66
2023-09-09T06:32:14.898Z,155536.47
2023-09-09T06:34:44.764Z,156085.13
2023-09-09T06:37:13.080Z,156258.38
2023-09-09T06:39:41.126Z,156304.41
2023-09-09T06:42:09.932Z,156280.75
2023-09-09T06:44:39.342Z,156194.09
2023-09-09T06:47:07.654Z,156506.63
2023-09-09T06:49:36.563Z,156559.16
2023-09-09T06:52:21.315Z,156435.72
2023-09-09T06:55:10.341Z,156532.94
2023-09-09T06:57:59.397Z,156527.66
2023-09-09T07:00:37.520Z,156394.97
2023-09-09T07:03:27.600Z,156398.91
2023-09-09T07:06:14.867Z,156406.78
2023-09-09T07:09:07.050Z,156567.06
2023-09-09T07:11:36.164Z,156532.94
2023-09-09T07:14:04.780Z,156567.06
2023-09-09T07:16:55.425Z,156655.09
2023-09-09T09:21:49.389Z,157754.00
2023-09-09T09:27:49.329Z,157564.25
2023-09-09T10:07:17.749Z,158284.00
2023-09-09T10:09:52.460Z,158017.59
2023-09-09T10:12:37.383Z,157967.47
2023-09-09T10:15:11.505Z,158327.53
2023-09-09T10:17:41.990Z,157843.56
2023-09-09T10:20:13.543Z,158173.19
2023-09-09T10:22:44.274Z,158047.94
2023-09-09T10:25:13.376Z,158334.09
2023-09-09T10:27:43.001Z,158496.47
2023-09-09T10:30:12.179Z,158204.84
2023-09-09T10:32:40.365Z,157922.69
2023-09-09T10:35:10.343Z,158417.25
2023-09-09T10:37:40.213Z,158678.59
2023-09-09T10:40:11.902Z,158546.59
2023-09-09T10:42:42.873Z,158448.91
2023-09-09T10:45:28.826Z,158558.44
2023-09-09T10:48:07.646Z,158602.06
2023-09-09T10:50:45.299Z,158115.19
2023-09-09T10:53:23.170Z,158212.78
2023-09-09T10:55:55.140Z,158533.41
2023-09-09T10:58:31.870Z,158679.91
2023-09-09T11:01:00.153Z,158483.28
2023-09-09T11:03:31.456Z,158458.13
2023-09-09T11:06:05.183Z,158678.59
2023-09-09T11:08:37.518Z,158478.00
2023-09-09T11:11:14.917Z,158215.41
2023-09-09T11:13:45.136Z,158707.66
2023-09-09T11:16:33.973Z,158542.66
2023-09-09T11:19:09.324Z,158526.81
2023-09-09T11:21:41.364Z,158409.34
2023-09-09T11:24:10.850Z,158111.22
2023-09-09T11:26:39.718Z,158260.28
2023-09-09T11:29:21.574Z,158004.41
2023-09-09T11:31:58.150Z,158584.84
2023-09-09T11:34:30.589Z,158653.53
2023-09-09T11:36:58.557Z,158633.72
2023-09-09T11:39:27.979Z,158815.94
2023-09-09T11:41:57.284Z,158648.25
2023-09-09T11:44:25.200Z,158344.66
2023-09-09T11:46:53.485Z,158442.34
2023-09-09T11:49:21.544Z,158625.81
2023-09-09T11:51:49.631Z,159086.78
2023-09-09T11:54:21.781Z,158995.59
2023-09-09T11:56:51.214Z,159142.25
2023-09-09T11:59:19.488Z,158444.94
2023-09-09T12:01:48.693Z,158742.00
2023-09-09T12:04:17.081Z,158698.41
2023-09-09T12:06:48.206Z,159222.91
2023-09-09T12:09:16.983Z,159234.75
2023-09-09T12:11:45.944Z,158823.84
2023-09-09T12:14:16.965Z,158798.75
2023-09-09T12:16:47.549Z,158756.53
2023-09-09T12:19:16.709Z,159065.56
2023-09-09T12:21:46.311Z,159158.13
2023-09-09T12:24:14.350Z,159037.84
2023-09-09T12:26:53.405Z,158778.97
2023-09-09T12:29:23.112Z,158874.06
2023-09-09T12:31:53.989Z,158768.41
2023-09-09T12:34:22.935Z,158955.97
2023-09-09T12:36:52.072Z,158885.97
2023-09-09T12:39:26.051Z,159185.88
2023-09-09T12:42:01.275Z,159355.06
2023-09-09T12:44:32.290Z,159118.50
2023-09-09T12:47:00.611Z,158678.59
2023-09-09T12:49:29.771Z,159144.88
2023-09-09T12:51:57.765Z,158900.44
2023-09-09T12:54:25.654Z,158973.13
2023-09-09T12:56:54.079Z,158677.25
2023-09-09T12:59:23.026Z,158880.69
2023-09-09T13:01:54.891Z,159318.06
2023-09-09T13:04:25.798Z,159266.50
2023-09-09T13:06:53.964Z,159311.47
2023-09-09T13:09:21.820Z,158716.91
2023-09-09T13:11:49.953Z,158777.66
2023-09-09T13:14:25.662Z,158357.91
2023-09-09T13:16:56.363Z,158665.41
2023-09-09T13:19:27.447Z,158885.97
2023-09-09T13:21:57.550Z,159277.06
2023-09-09T13:24:25.536Z,158199.56
2023-09-09T13:27:19.283Z,158291.91
2023-09-09T13:30:00.919Z,158228.56
2023-09-09T13:33:09.030Z,158745.97
2023-09-09T13:35:39.961Z,158719.59
2023-09-09T13:38:09.164Z,158580.91
2023-09-09T13:48:28.368Z,158778.97
2023-09-09T13:51:18.427Z,159051.06
2023-09-09T14:14:14.511Z,159435.75
2023-09-09T14:16:52.518Z,158893.91
2023-09-09T14:32:48.781Z,158854.25
2023-09-09T14:35:17.328Z,158613.91
2023-09-09T14:37:45.370Z,158698.41
2023-09-09T14:40:14.544Z,159183.19
2023-09-09T14:42:43.727Z,158942.75
2023-09-09T14:45:12.377Z,158942.75
2023-09-09T14:47:43.235Z,159147.53
2023-09-09T14:50:12.896Z,159140.91
2023-09-09T14:52:41.069Z,159068.22
2023-09-09T14:55:09.785Z,158948.03
2023-09-09T14:57:37.891Z,158666.75
2023-09-09T15:00:07.283Z,159066.88
2023-09-09T15:02:39.175Z,159084.13
2023-09-09T15:05:11.792Z,158996.94
2023-09-09T15:07:42.505Z,158796.09
2023-09-09T15:10:11.190Z,158685.19
2023-09-09T15:12:39.064Z,158550.56
2023-09-09T15:15:08.353Z,158785.53
2023-09-09T15:20:11.470Z,158487.25
2023-09-09T15:22:39.353Z,158336.72
2023-09-09T15:25:09.757Z,158739.34
2023-09-09T15:27:38.809Z,158867.47
2023-09-09T15:30:08.451Z,158740.66
2023-09-09T15:32:36.399Z,158790.81
2023-09-09T15:35:04.832Z,158711.59
2023-09-09T15:37:32.887Z,158530.75
2023-09-09T15:40:00.913Z,158555.84
2023-09-09T15:42:30.237Z,158695.75
2023-09-09T15:44:58.182Z,158637.69
2023-09-09T15:47:26.144Z,158542.66
2023-09-09T15:49:54.036Z,158074.28
2023-09-09T15:52:22.119Z,158171.88
2023-09-09T15:54:50.340Z,158586.19
2023-09-09T15:57:18.250Z,158682.53
2023-09-09T15:59:47.723Z,158384.31
2023-09-09T16:02:15.633Z,158297.19
2023-09-09T16:04:43.734Z,158080.88
2023-09-09T16:07:11.840Z,158080.88
2023-09-09T16:09:43.246Z,158408.00
2023-09-09T16:12:11.534Z,158402.75
2023-09-09T16:14:39.464Z,157996.50
2023-09-09T16:17:08.839Z,158018.94
2023-09-09T16:19:36.852Z,158295.88
2023-09-09T16:22:05.845Z,158101.97
2023-09-09T16:24:33.944Z,157896.31
2023-09-09T16:27:01.883Z,157920.06
2023-09-09T16:29:29.920Z,158119.13
2023-09-09T16:31:57.926Z,157765.88
2023-09-09T16:34:27.240Z,158017.59
2023-09-09T16:36:57.079Z,157840.94
2023-09-09T16:39:25.347Z,157619.59
2023-09-09T16:41:53.343Z,157482.66
2023-09-09T16:44:21.192Z,157519.50
2023-09-09T16:46:49.096Z,157510.28
2023-09-09T16:49:17.414Z,157514.22
2023-09-09T16:51:46.852Z,157315.47
2023-09-09T16:54:14.753Z,157349.66
2023-09-09T16:56:42.657Z,157443.13
2023-09-09T16:59:10.714Z,157361.50
2023-09-09T17:01:39.268Z,157312.84
2023-09-09T17:04:08.708Z,157333.84
2023-09-09T17:06:36.786Z,157281.19
2023-09-09T17:09:06.431Z,157199.63
2023-09-09T17:11:34.406Z,157132.47
2023-09-09T17:14:02.468Z,157029.91
2023-09-09T17:16:30.438Z,156932.53
2023-09-09T17:18:59.289Z,156903.63
2023-09-09T17:21:27.193Z,156837.84
2023-09-09T17:23:55.053Z,156778.69
2023-09-09T17:26:25.949Z,156624.91
2023-09-09T17:28:53.877Z,156532.94
2023-09-09T17:31:21.845Z,156443.59
2023-09-09T17:33:49.955Z,156393.66
2023-09-09T17:36:18.813Z,156299.13
2023-09-09T17:38:51.226Z,156236.06
2023-09-09T17:41:19.092Z,156183.59
2023-09-09T17:43:50.642Z,156123.22
2023-09-09T17:46:18.740Z,156070.69
2023-09-09T17:48:46.686Z,156016.91
2023-09-09T17:51:15.495Z,155961.81
2023-09-09T17:53:46.450Z,155893.53
2023-09-09T17:56:14.484Z,155826.66
2023-09-09T17:58:44.860Z,155829.28
2023-09-09T18:01:14.384Z,155778.16
2023-09-09T18:03:42.570Z,155746.66
2023-09-09T18:06:11.454Z,155716.50
2023-09-09T18:08:39.742Z,155671.94
2023-09-09T18:11:10.122Z,155598.47
2023-09-09T18:13:41.194Z,155540.81
2023-09-09T18:16:10.033Z,155501.53
2023-09-09T18:18:42.659Z,155462.25
2023-09-09T18:21:11.317Z,155441.25
2023-09-09T18:23:39.551Z,155437.34
2023-09-09T18:26:07.643Z,155415.00
2023-09-09T18:28:35.996Z,155433.41
2023-09-09T18:31:10.260Z,155429.47
2023-09-09T18:33:40.840Z,155412.41
2023-09-09T18:36:11.644Z,155373.09
2023-09-09T18:38:42.681Z,155329.91
2023-09-09T18:41:12.606Z,155298.50
2023-09-09T18:43:40.941Z,155267.03
2023-09-09T18:46:09.336Z,155273.59
2023-09-09T18:48:37.866Z,155290.63
2023-09-09T18:51:07.681Z,155286.69
2023-09-09T18:53:39.143Z,155242.13
2023-09-09T18:56:07.858Z,155285.38
2023-09-09T18:58:45.184Z,155284.06
2023-09-09T19:01:15.523Z,155219.84
2023-09-09T19:03:43.607Z,155210.69
2023-09-09T19:06:13.269Z,155159.63
2023-09-09T19:08:41.609Z,155126.94
2023-09-09T19:11:09.834Z,155092.88
2023-09-09T19:13:40.637Z,155057.50
2023-09-09T19:16:09.996Z,155027.41
2023-09-09T19:18:38.345Z,155007.78
2023-09-09T19:21:09.670Z,154954.16
2023-09-09T19:23:39.175Z,154964.63
2023-09-09T19:26:07.444Z,150778.72
2023-09-09T19:28:35.526Z,154922.75
2023-09-09T19:31:03.588Z,154838.59
2023-09-09T19:33:31.872Z,148943.78
2023-09-09T19:35:59.830Z,138784.03
2023-09-09T19:38:27.715Z,131814.47
2023-09-09T19:40:58.018Z,151729.81
2023-09-09T19:43:25.986Z,140563.88
2023-09-09T19:45:53.971Z,142128.66
2023-09-09T19:48:21.891Z,152072.00
2023-09-09T19:50:49.866Z,154938.44
2023-09-09T19:53:19.480Z,150736.09
2023-09-09T19:55:48.652Z,131763.19
2023-09-09T19:58:17.929Z,136987.25
2023-09-09T20:00:47.522Z,130711.00
2023-09-09T20:03:15.527Z,126852.50
2023-09-09T20:05:49.983Z,111595.94
2023-09-09T20:08:18.023Z,130076.13
2023-09-09T20:10:46.290Z,136666.75
2023-09-09T20:13:15.589Z,127600.06
2023-09-09T20:15:44.970Z,123435.19
2023-09-09T20:18:13.035Z,134942.72
2023-09-09T20:20:41.144Z,138372.34
2023-09-09T20:23:11.159Z,127517.00
2023-09-09T20:25:39.780Z,114338.06
2023-09-09T20:28:08.246Z,108801.81
2023-09-09T20:30:36.293Z,118879.13
2023-09-09T20:33:07.106Z,127186.91
2023-09-09T20:35:35.551Z,112924.84
2023-09-09T20:38:05.539Z,102201.78
2023-09-09T20:40:34.239Z,114341.94
2023-09-09T20:43:03.152Z,122648.56
2023-09-09T20:45:31.279Z,117035.19
2023-09-09T20:47:59.554Z,103177.63
2023-09-09T20:50:33.975Z,113935.94
2023-09-09T20:53:02.753Z,110808.16
2023-09-09T20:55:33.734Z,112853.19
2023-09-09T20:58:01.699Z,105254.09
2023-09-09T21:00:30.741Z,108034.44
2023-09-09T21:02:58.620Z,110132.72
2023-09-09T21:05:28.329Z,113948.50
2023-09-09T21:07:56.494Z,118416.19
2023-09-09T21:10:25.002Z,107637.06
2023-09-09T21:12:54.124Z,106981.06
2023-09-09T21:15:26.162Z,112823.53
2023-09-09T21:17:54.642Z,104819.13
2023-09-09T21:20:24.827Z,96201.75
2023-09-09T21:22:54.304Z,96240.94
2023-09-09T21:25:30.550Z,98308.53
2023-09-09T21:28:00.257Z,105548.19
2023-09-09T21:30:29.277Z,106916.66
2023-09-09T21:32:59.489Z,101049.22
2023-09-09T21:35:27.962Z,105551.78
2023-09-09T21:38:01.506Z,102049.34
2023-09-09T21:40:30.087Z,94475.22
2023-09-09T21:42:58.028Z,79722.34
2023-09-09T21:45:25.927Z,104505.34
2023-09-09T21:47:55.051Z,92405.91
2023-09-09T21:50:24.423Z,97577.50
2023-09-09T21:52:52.886Z,99324.13
2023-09-09T21:55:22.552Z,111754.47
2023-09-09T21:57:50.790Z,104796.94
2023-09-09T22:00:21.464Z,102697.53
2023-09-09T22:02:50.919Z,103024.56
2023-09-09T22:05:19.363Z,98525.72
2023-09-09T22:07:47.731Z,81690.09
2023-09-09T22:10:16.151Z,80690.78
2023-09-09T22:12:45.536Z,88272.66
2023-09-09T22:15:13.889Z,94805.47
2023-09-09T22:17:42.056Z,81744.44
2023-09-09T22:20:14.025Z,75562.47
2023-09-09T22:22:42.129Z,85872.84
2023-09-09T22:25:10.710Z,95473.06
2023-09-09T22:27:38.882Z,94751.53
2023-09-09T22:30:09.714Z,93342.78
2023-09-09T22:32:37.693Z,88177.28
2023-09-09T22:35:08.902Z,85075.63
2023-09-09T22:37:38.609Z,84717.09
2023-09-09T22:40:10.765Z,84375.22
2023-09-09T22:42:39.105Z,74095.72
2023-09-09T22:45:08.912Z,82645.94
2023-09-09T22:47:36.823Z,82990.41
2023-09-09T22:50:06.126Z,70325.72
2023-09-09T22:52:34.192Z,61131.44
2023-09-09T22:55:02.877Z,72065.03
2023-09-09T22:57:30.942Z,80944.94
2023-09-09T22:59:59.239Z,83326.41
2023-09-09T23:02:28.774Z,72031.06
2023-09-09T23:04:57.042Z,80573.16
2023-09-09T23:07:28.951Z,65897.03
2023-09-09T23:10:01.151Z,77884.59
2023-09-09T23:12:29.185Z,83677.38
2023-09-09T23:14:57.217Z,77828.72
2023-09-09T23:17:25.157Z,71016.78
2023-09-09T23:19:55.773Z,65237.16
2023-09-09T23:22:23.661Z,83359.81
2023-09-09T23:24:51.527Z,73761.69
2023-09-09T23:27:19.357Z,67971.53
2023-09-09T23:29:47.282Z,83386.13
2023-09-09T23:32:15.232Z,89532.69
2023-09-09T23:34:43.211Z,78883.28
2023-09-09T23:37:12.512Z,84028.44
2023-09-09T23:39:40.537Z,86742.03
2023-09-09T23:42:09.507Z,74403.00
2023-09-09T23:44:39.455Z,76465.56
2023-09-09T23:47:07.626Z,80895.94
2023-09-09T23:49:35.698Z,75066.13
2023-09-09T23:52:03.699Z,65876.09
2023-09-09T23:54:33.162Z,77831.38
2023-09-09T23:57:01.145Z,81571.00
2023-09-09T23:59:29.067Z,66538.31
